Time,TemperatureF,DewpointF,PressureIn,WindDirection,WindDirectionDegrees,WindSpeedMPH,WindSpeedGustMPH,Humidity,HourlyPrecipIn,Conditions,Clouds,dailyrainin,SoftwareType,DateUTC
2013-09-13 00:03:00,61.1,51.2,29.72,SW,232,1.1,1.1,70,0.00,CLR,SKC,0.00,WeatherDisplay:10.37,2013-09-13 06:03:00,
2013-09-13 00:08:00,60.8,50.2,29.72,WNW,293,1.1,1.1,68,0.00,CLR,SKC,0.00,WeatherDisplay:10.37,2013-09-13 06:08:00,
2013-09-13 00:13:00,60.7,50.5,29.72,SW,234,1.1,1.1,69,0.00,CLR,SKC,0.00,WeatherDisplay:10.37,2013-09-13 06:13:00,
2013-09-13 00:18:00,60.8,49.8,29.72,WSW,246,0.0,1.0,67,0.00,CLR,SKC,0.00,WeatherDisplay:10.37,2013-09-13 06:18:00,
2013-09-13 00:23:00,60.6,49.2,29.72,SW,234,0.0,1.0,66,0.00,CLR,SKC,0.00,WeatherDisplay:10.37,2013-09-13 06:23:00,
2013-09-13 00:29:00,60.4,50.2,29.72,SW,234,0.0,0.0,69,0.00,CLR,SKC,0.00,WeatherDisplay:10.37,2013-09-13 06:29:00,
2013-09-13 00:34:00,60.4,49.4,29.72,SW,234,0.0,0.0,67,0.00,CLR,SKC,0.00,WeatherDisplay:10.37,2013-09-13 06:34:00,
2013-09-13 00:40:00,60.2,49.6,29.72,SW,234,0.0,0.0,68,0.00,CLR,SKC,0.00,WeatherDisplay:10.37,2013-09-13 06:40:00,
2013-09-13 00:45:00,60.1,50.7,29.71,SW,234,0.0,0.0,71,0.00,CLR,SKC,0.00,WeatherDisplay:10.37,2013-09-13 06:45:00,
2013-09-13 00:50:00,60.0,50.2,29.71,SW,234,0.0,0.0,70,0.00,CLR,SKC,0.00,WeatherDisplay:10.37,2013-09-13 06:50:00,
2013-09-13 00:55:00,59.7,50.3,29.71,SW,234,0.0,0.0,71,0.00,CLR,SKC,0.00,WeatherDisplay:10.37,2013-09-13 06:55:00,
2013-09-13 01:00:00,59.5,50.1,29.71,SW,234,1.1,0.0,71,0.00,CLR,SKC,0.00,WeatherDisplay:10.37,2013-09-13 07:00:00,
2013-09-13 01:05:00,59.6,49.8,29.71,SW,234,0.0,0.0,70,0.00,CLR,SKC,0.00,WeatherDisplay:10.37,2013-09-13 07:05:00,
2013-09-13 01:10:00,59.8,49.6,29.71,SW,234,0.0,0.1,69,0.00,CLR,SKC,0.00,WeatherDisplay:10.37,2013-09-13 07:10:00,
2013-09-13 01:15:00,60.1,49.5,29.71,SW,234,0.0,0.0,68,0.00,CLR,SKC,0.00,WeatherDisplay:10.37,2013-09-13 07:15:00,
2013-09-13 01:20:00,60.4,49.8,29.71,SW,234,0.0,0.0,68,0.00,CLR,SKC,0.00,WeatherDisplay:10.37,2013-09-13 07:20:00,
2013-09-13 01:25:00,60.6,50.4,29.71,SW,234,1.1,1.1,69,0.00,CLR,SKC,0.00,WeatherDisplay:10.37,2013-09-13 07:25:00,
2013-09-13 01:30:00,60.6,49.6,29.71,SW,234,0.0,0.0,67,0.00,CLR,SKC,0.00,WeatherDisplay:10.37,2013-09-13 07:30:00,
2013-09-13 01:35:00,60.8,50.2,29.71,SW,234,0.0,0.0,68,0.00,CLR,SKC,0.00,WeatherDisplay:10.37,2013-09-13 07:35:00,
2013-09-13 01:40:00,61.0,50.4,29.71,SW,236,1.1,0.0,68,0.00,CLR,SKC,0.00,WeatherDisplay:10.37,2013-09-13 07:40:00,
2013-09-13 01:46:00,61.1,50.1,29.71,SW,236,0.0,0.0,67,0.00,CLR,SKC,0.00,WeatherDisplay:10.37,2013-09-13 07:46:00,
2013-09-13 01:50:00,61.2,50.2,29.71,SW,236,0.0,0.0,67,0.00,CLR,SKC,0.00,WeatherDisplay:10.37,2013-09-13 07:50:00,
2013-09-13 01:55:00,61.3,50.6,29.71,SW,236,0.0,0.0,68,0.00,CLR,SKC,0.00,WeatherDisplay:10.37,2013-09-13 07:55:00,
2013-09-13 02:00:00,61.3,50.2,29.71,SW,236,0.0,0.0,67,0.00,CLR,SKC,0.00,WeatherDisplay:10.37,2013-09-13 08:00:00,
2013-09-13 02:05:00,61.4,50.3,29.71,SW,236,1.1,1.1,67,0.00,CLR,SKC,0.00,WeatherDisplay:10.37,2013-09-13 08:05:00,
2013-09-13 02:10:00,61.6,50.1,29.70,SW,236,0.0,0.0,66,0.00,CLR,SKC,0.00,WeatherDisplay:10.37,2013-09-13 08:10:00,
2013-09-13 02:15:00,61.6,50.5,29.71,SW,236,0.0,0.0,67,0.00,CLR,SKC,0.00,WeatherDisplay:10.37,2013-09-13 08:15:00,
2013-09-13 02:20:00,61.7,50.6,29.70,SW,236,0.0,0.1,67,0.00,CLR,SKC,0.00,WeatherDisplay:10.37,2013-09-13 08:20:00,
2013-09-13 02:26:00,61.8,50.3,29.70,SW,236,0.0,0.0,66,0.00,CLR,SKC,0.00,WeatherDisplay:10.37,2013-09-13 08:26:00,
2013-09-13 02:31:00,61.8,49.5,29.70,SW,236,0.0,0.0,64,0.00,CLR,SKC,0.00,WeatherDisplay:10.37,2013-09-13 08:31:00,
2013-09-13 02:36:00,61.9,50.4,29.70,SW,236,0.0,0.0,66,0.00,CLR,SKC,0.00,WeatherDisplay:10.37,2013-09-13 08:36:00,
2013-09-13 02:42:00,61.8,51.1,29.70,SW,236,0.0,0.0,68,0.00,CLR,SKC,0.00,WeatherDisplay:10.37,2013-09-13 08:42:00,
2013-09-13 02:47:00,61.6,51.3,29.70,SW,236,0.0,0.0,69,0.00,CLR,SKC,0.00,WeatherDisplay:10.37,2013-09-13 08:47:00,
2013-09-13 02:52:00,61.4,51.5,29.70,SW,236,0.0,0.0,70,0.00,CLR,SKC,0.00,WeatherDisplay:10.37,2013-09-13 08:52:00,
2013-09-13 02:57:00,61.1,51.2,29.70,SW,236,0.0,0.0,70,0.00,CLR,SKC,0.00,WeatherDisplay:10.37,2013-09-13 08:57:00,
2013-09-13 03:02:00,61.0,51.5,29.70,SW,236,0.0,0.0,71,0.00,CLR,SKC,0.00,WeatherDisplay:10.37,2013-09-13 09:02:00,
2013-09-13 03:07:00,60.8,51.3,29.70,SW,236,0.0,0.0,71,0.00,CLR,SKC,0.00,WeatherDisplay:10.37,2013-09-13 09:07:00,
2013-09-13 03:12:00,60.6,51.1,29.70,SW,236,1.0,1.0,71,0.00,CLR,SKC,0.00,WeatherDisplay:10.37,2013-09-13 09:12:00,
2013-09-13 03:17:00,60.5,50.7,29.70,SW,236,0.0,0.0,70,0.00,CLR,SKC,0.00,WeatherDisplay:10.37,2013-09-13 09:17:00,
2013-09-13 03:22:00,60.4,50.2,29.70,SW,236,0.0,0.0,69,0.00,CLR,SKC,0.00,WeatherDisplay:10.37,2013-09-13 09:22:00,
2013-09-13 03:27:00,60.4,51.0,29.70,SW,236,0.0,0.0,71,0.00,CLR,SKC,0.00,WeatherDisplay:10.37,2013-09-13 09:27:00,
2013-09-13 03:32:00,60.2,51.1,29.70,SW,236,0.0,0.0,72,0.00,CLR,SKC,0.00,WeatherDisplay:10.37,2013-09-13 09:32:00,
2013-09-13 03:37:00,59.8,49.6,29.70,SW,236,0.0,0.0,69,0.00,CLR,SKC,0.00,WeatherDisplay:10.37,2013-09-13 09:37:00,
2013-09-13 03:42:00,60.0,50.9,29.70,SW,236,0.0,0.0,72,0.00,CLR,SKC,0.00,WeatherDisplay:10.37,2013-09-13 09:42:00,
2013-09-13 03:47:00,59.9,51.6,29.70,SW,236,0.0,0.0,74,0.00,CLR,SKC,0.00,WeatherDisplay:10.37,2013-09-13 09:47:00,
2013-09-13 03:52:00,59.5,50.8,29.70,SW,236,0.0,0.0,73,0.00,CLR,SKC,0.00,WeatherDisplay:10.37,2013-09-13 09:52:00,
2013-09-13 03:57:00,59.4,50.7,29.70,SW,236,0.0,0.0,73,0.00,CLR,SKC,0.00,WeatherDisplay:10.37,2013-09-13 09:57:00,
2013-09-13 04:02:00,59.2,51.3,29.70,SW,236,0.0,0.0,75,0.00,CLR,SKC,0.00,WeatherDisplay:10.37,2013-09-13 10:02:00,
2013-09-13 04:07:00,58.9,51.0,29.70,SW,236,0.0,0.0,75,0.00,CLR,SKC,0.00,WeatherDisplay:10.37,2013-09-13 10:07:00,
2013-09-13 04:12:00,58.7,51.5,29.70,SW,236,0.0,0.0,77,0.00,CLR,SKC,0.00,WeatherDisplay:10.37,2013-09-13 10:12:00,
2013-09-13 04:17:00,58.4,50.9,29.71,SW,236,0.0,0.0,76,0.00,CLR,SKC,0.00,WeatherDisplay:10.37,2013-09-13 10:17:00,
2013-09-13 04:22:00,58.3,50.8,29.71,SW,236,0.0,0.0,76,0.00,CLR,SKC,0.00,WeatherDisplay:10.37,2013-09-13 10:22:00,
2013-09-13 04:27:00,58.2,51.4,29.71,SW,236,0.0,0.0,78,0.00,CLR,SKC,0.00,WeatherDisplay:10.37,2013-09-13 10:27:00,
2013-09-13 04:32:00,57.9,51.4,29.71,SW,236,0.0,0.0,79,0.00,CLR,SKC,0.00,WeatherDisplay:10.37,2013-09-13 10:32:00,
2013-09-13 04:37:00,57.4,50.6,29.71,SW,236,0.0,0.0,78,0.00,CLR,SKC,0.00,WeatherDisplay:10.37,2013-09-13 10:37:00,
2013-09-13 04:42:00,56.8,50.4,29.71,SW,236,0.0,0.0,79,0.00,CLR,SKC,0.00,WeatherDisplay:10.37,2013-09-13 10:42:00,
2013-09-13 04:47:00,56.5,50.4,29.71,SW,236,0.0,0.0,80,0.00,CLR,SKC,0.00,WeatherDisplay:10.37,2013-09-13 10:47:00,
2013-09-13 04:52:00,56.3,50.2,29.71,SW,236,0.0,0.0,80,0.00,CLR,SKC,0.00,WeatherDisplay:10.37,2013-09-13 10:52:00,
2013-09-13 04:57:00,56.0,50.3,29.71,SW,236,0.0,0.0,81,0.00,CLR,SKC,0.00,WeatherDisplay:10.37,2013-09-13 10:57:00,
2013-09-13 05:02:00,55.8,50.1,29.70,SW,236,0.0,0.0,81,0.00,CLR,SKC,0.00,WeatherDisplay:10.37,2013-09-13 11:02:00,
2013-09-13 05:07:00,55.6,50.5,29.70,SW,236,0.0,0.0,83,0.00,CLR,SKC,0.00,WeatherDisplay:10.37,2013-09-13 11:07:00,
2013-09-13 05:12:00,55.3,49.9,29.70,SW,236,0.0,0.0,82,0.00,CLR,SKC,0.00,WeatherDisplay:10.37,2013-09-13 11:12:00,
2013-09-13 05:18:00,55.2,49.8,29.70,SW,236,0.0,0.0,82,0.00,CLR,SKC,0.00,WeatherDisplay:10.37,2013-09-13 11:18:00,
2013-09-13 05:23:00,55.2,50.1,29.70,SW,236,0.0,0.0,83,0.00,CLR,SKC,0.00,WeatherDisplay:10.37,2013-09-13 11:23:00,
2013-09-13 05:28:00,55.3,50.2,29.70,SW,236,0.0,0.0,83,0.00,CLR,SKC,0.00,WeatherDisplay:10.37,2013-09-13 11:28:00,
2013-09-13 05:33:00,55.2,50.1,29.70,SW,236,0.0,0.0,83,0.00,CLR,SKC,0.00,WeatherDisplay:10.37,2013-09-13 11:33:00,
2013-09-13 05:38:00,55.2,50.1,29.70,SW,236,0.0,0.0,83,0.00,CLR,SKC,0.00,WeatherDisplay:10.37,2013-09-13 11:38:00,
2013-09-13 05:43:00,55.1,50.4,29.70,SW,236,0.0,0.0,84,0.00,CLR,SKC,0.00,WeatherDisplay:10.37,2013-09-13 11:43:00,
2013-09-13 05:48:00,54.9,50.2,29.70,SW,236,0.0,0.0,84,0.00,CLR,SKC,0.00,WeatherDisplay:10.37,2013-09-13 11:48:00,
2013-09-13 05:53:00,55.0,50.6,29.70,SW,236,0.0,0.0,85,0.00,CLR,SKC,0.00,WeatherDisplay:10.37,2013-09-13 11:53:00,
2013-09-13 05:58:00,55.0,50.3,29.70,SW,236,0.0,0.0,84,0.00,CLR,SKC,0.00,WeatherDisplay:10.37,2013-09-13 11:58:00,
2013-09-13 06:03:00,55.0,49.9,29.70,SW,236,0.0,0.0,83,0.00,CLR,SKC,0.00,WeatherDisplay:10.37,2013-09-13 12:03:00,
2013-09-13 06:08:00,55.1,50.0,29.70,SW,236,0.0,0.0,83,0.00,CLR,SKC,0.00,WeatherDisplay:10.37,2013-09-13 12:08:00,
2013-09-13 06:13:00,55.4,50.6,29.69,SW,236,0.0,0.0,84,0.00,CLR,SKC,0.00,WeatherDisplay:10.37,2013-09-13 12:13:00,
2013-09-13 06:18:00,55.4,50.3,29.69,SW,236,0.0,0.0,83,0.00,CLR,SKC,0.00,WeatherDisplay:10.37,2013-09-13 12:18:00,
2013-09-13 06:23:00,55.5,50.1,29.69,SW,236,0.0,0.0,82,0.00,CLR,SKC,0.00,WeatherDisplay:10.37,2013-09-13 12:23:00,
2013-09-13 06:28:00,55.7,50.6,29.70,SW,236,0.0,0.0,83,0.00,CLR,SKC,0.00,WeatherDisplay:10.37,2013-09-13 12:28:00,
2013-09-13 06:33:00,55.7,50.6,29.70,SW,236,0.0,0.0,83,0.00,CLR,SKC,0.00,WeatherDisplay:10.37,2013-09-13 12:33:00,
2013-09-13 06:38:00,55.7,50.3,29.70,SW,236,0.0,0.0,82,0.00,CLR,SKC,0.00,WeatherDisplay:10.37,2013-09-13 12:38:00,
2013-09-13 06:42:00,55.8,49.7,29.70,SW,236,0.0,0.0,80,0.00,CLR,SKC,0.00,WeatherDisplay:10.37,2013-09-13 12:42:00,
2013-09-13 06:47:00,56.1,50.3,29.70,SW,236,0.0,0.0,81,0.00,CLR,SKC,0.00,WeatherDisplay:10.37,2013-09-13 12:47:00,
2013-09-13 06:52:00,56.1,50.3,29.70,SW,236,0.0,0.0,81,0.00,CLR,SKC,0.00,WeatherDisplay:10.37,2013-09-13 12:52:00,
2013-09-13 06:57:00,56.2,49.8,29.70,SW,236,0.0,0.0,79,0.00,CLR,SKC,0.00,WeatherDisplay:10.37,2013-09-13 12:57:00,
2013-09-13 07:02:00,56.3,50.2,29.70,SW,236,0.0,0.0,80,0.00,CLR,SKC,0.00,WeatherDisplay:10.37,2013-09-13 13:02:00,
2013-09-13 07:07:00,56.4,49.6,29.70,SW,236,0.0,0.0,78,0.00,CLR,SKC,0.00,WeatherDisplay:10.37,2013-09-13 13:07:00,
2013-09-13 07:12:00,56.4,49.3,29.70,SW,236,0.0,0.0,77,0.00,CLR,SKC,0.00,WeatherDisplay:10.37,2013-09-13 13:12:00,
2013-09-13 07:17:00,56.4,49.3,29.70,SW,236,0.0,0.0,77,0.00,CLR,SKC,0.00,WeatherDisplay:10.37,2013-09-13 13:17:00,
2013-09-13 07:22:00,56.6,48.8,29.71,SW,236,0.0,0.0,75,0.00,CLR,SKC,0.00,WeatherDisplay:10.37,2013-09-13 13:22:00,
2013-09-13 07:27:00,56.9,50.8,29.71,SW,236,0.0,0.0,80,0.00,CLR,SKC,0.00,WeatherDisplay:10.37,2013-09-13 13:27:00,
2013-09-13 07:32:00,56.9,50.5,29.71,SW,236,0.0,0.0,79,0.00,CLR,SKC,0.00,WeatherDisplay:10.37,2013-09-13 13:32:00,
2013-09-13 07:37:00,57.0,50.2,29.71,SW,236,0.0,0.0,78,0.00,CLR,SKC,0.00,WeatherDisplay:10.37,2013-09-13 13:37:00,
2013-09-13 07:42:00,57.1,51.3,29.71,SW,236,0.0,0.0,81,0.00,CLR,SKC,0.00,WeatherDisplay:10.37,2013-09-13 13:42:00,
2013-09-13 07:48:00,57.1,51.3,29.71,SW,236,0.0,0.0,81,0.00,CLR,SKC,0.00,WeatherDisplay:10.37,2013-09-13 13:48:00,
2013-09-13 07:54:00,56.9,51.5,29.71,SW,236,0.0,0.0,82,0.00,CLR,SKC,0.00,WeatherDisplay:10.37,2013-09-13 13:54:00,
2013-09-13 07:59:00,56.9,51.5,29.71,SW,236,0.0,0.0,82,0.00,CLR,SKC,0.00,WeatherDisplay:10.37,2013-09-13 13:59:00,
2013-09-13 08:04:00,56.9,51.5,29.71,SW,236,0.0,0.0,82,0.00,CLR,SKC,0.00,WeatherDisplay:10.37,2013-09-13 14:04:00,
2013-09-13 08:09:00,56.9,51.8,29.71,SW,236,0.0,0.0,83,0.00,CLR,SKC,0.00,WeatherDisplay:10.37,2013-09-13 14:09:00,
2013-09-13 08:14:00,57.0,51.9,29.71,SW,236,0.0,0.0,83,0.00,CLR,SKC,0.00,WeatherDisplay:10.37,2013-09-13 14:14:00,
2013-09-13 08:19:00,57.1,52.0,29.72,SW,236,0.0,0.0,83,0.00,CLR,SKC,0.00,WeatherDisplay:10.37,2013-09-13 14:19:00,
2013-09-13 08:24:00,57.1,52.3,29.71,SW,236,0.0,0.0,84,0.00,CLR,SKC,0.00,WeatherDisplay:10.37,2013-09-13 14:24:00,
2013-09-13 08:29:00,57.3,52.5,29.71,SW,236,0.0,0.0,84,0.00,CLR,SKC,0.00,WeatherDisplay:10.37,2013-09-13 14:29:00,
2013-09-13 08:34:00,57.4,51.9,29.71,SW,236,0.0,0.0,82,0.00,CLR,SKC,0.00,WeatherDisplay:10.37,2013-09-13 14:34:00,
2013-09-13 08:39:00,57.6,52.8,29.70,SW,236,0.0,0.0,84,0.00,CLR,SKC,0.00,WeatherDisplay:10.37,2013-09-13 14:39:00,
2013-09-13 08:44:00,57.8,52.7,29.70,SW,236,0.0,0.0,83,0.00,CLR,SKC,0.00,WeatherDisplay:10.37,2013-09-13 14:44:00,
2013-09-13 08:49:00,57.9,52.8,29.70,SW,236,0.0,0.0,83,0.00,CLR,SKC,0.00,WeatherDisplay:10.37,2013-09-13 14:49:00,
2013-09-13 08:54:00,58.2,52.4,29.70,SW,236,0.0,0.0,81,0.00,CLR,SKC,0.00,WeatherDisplay:10.37,2013-09-13 14:54:00,
2013-09-13 08:59:00,58.5,51.3,29.70,SW,236,1.0,1.0,77,0.00,CLR,SKC,0.00,WeatherDisplay:10.37,2013-09-13 14:59:00,
2013-09-13 09:05:00,59.0,52.8,29.70,SW,236,0.0,0.0,80,0.00,CLR,SKC,0.00,WeatherDisplay:10.37,2013-09-13 15:05:00,
2013-09-13 09:10:00,59.2,53.0,29.70,SW,236,0.0,0.0,80,0.00,CLR,SKC,0.00,WeatherDisplay:10.37,2013-09-13 15:10:00,
2013-09-13 09:15:00,59.2,51.6,29.70,SW,236,0.0,0.0,76,0.00,CLR,SKC,0.00,WeatherDisplay:10.37,2013-09-13 15:15:00,
2013-09-13 09:20:00,59.2,50.5,29.70,SW,236,0.0,0.0,73,0.00,CLR,SKC,0.00,WeatherDisplay:10.37,2013-09-13 15:20:00,
2013-09-13 09:25:00,59.5,50.1,29.70,SW,236,0.0,0.0,71,0.00,CLR,SKC,0.00,WeatherDisplay:10.37,2013-09-13 15:25:00,
2013-09-13 09:30:00,60.1,50.3,29.70,SW,236,0.0,0.0,70,0.00,CLR,SKC,0.00,WeatherDisplay:10.37,2013-09-13 15:30:00,
2013-09-13 09:35:00,60.6,50.4,29.70,SW,236,0.0,0.0,69,0.00,CLR,SKC,0.00,WeatherDisplay:10.37,2013-09-13 15:35:00,
2013-09-13 09:40:00,61.2,49.7,29.70,SW,236,0.0,0.0,66,0.00,CLR,SKC,0.00,WeatherDisplay:10.37,2013-09-13 15:40:00,
2013-09-13 09:45:00,62.0,49.7,29.70,SW,236,0.0,0.0,64,0.00,CLR,SKC,0.00,WeatherDisplay:10.37,2013-09-13 15:45:00,
2013-09-13 09:50:00,62.7,49.9,29.70,SW,236,0.0,0.0,63,0.00,CLR,SKC,0.00,WeatherDisplay:10.37,2013-09-13 15:50:00,
2013-09-13 09:55:00,63.2,50.8,29.69,SW,236,0.0,0.0,64,0.00,CLR,SKC,0.00,WeatherDisplay:10.37,2013-09-13 15:55:00,
2013-09-13 10:00:00,63.8,50.5,29.69,WSW,238,1.1,0.0,62,0.00,CLR,SKC,0.00,WeatherDisplay:10.37,2013-09-13 16:00:00,
2013-09-13 10:05:00,64.4,49.8,29.69,WSW,238,0.0,0.0,59,0.00,CLR,SKC,0.00,WeatherDisplay:10.37,2013-09-13 16:05:00,
2013-09-13 10:10:00,65.0,50.3,29.69,NE,37,1.1,1.1,59,0.00,CLR,SKC,0.00,WeatherDisplay:10.37,2013-09-13 16:10:00,
2013-09-13 10:15:00,65.6,50.4,29.69,NE,37,0.0,0.0,58,0.00,CLR,SKC,0.00,WeatherDisplay:10.37,2013-09-13 16:15:00,
2013-09-13 10:20:00,66.1,49.9,29.69,NE,37,1.1,0.0,56,0.00,CLR,SKC,0.00,WeatherDisplay:10.37,2013-09-13 16:20:00,
2013-09-13 10:25:00,66.5,50.8,29.69,NE,37,0.0,0.0,57,0.00,CLR,SKC,0.00,WeatherDisplay:10.37,2013-09-13 16:25:00,
2013-09-13 10:30:00,67.0,50.8,29.69,NE,37,0.0,0.0,56,0.00,CLR,SKC,0.00,WeatherDisplay:10.37,2013-09-13 16:30:00,
2013-09-13 10:35:00,67.4,50.2,29.69,NE,37,0.0,0.0,54,0.00,CLR,SKC,0.00,WeatherDisplay:10.37,2013-09-13 16:35:00,
2013-09-13 10:40:00,67.7,49.9,29.69,NE,37,0.0,0.0,53,0.00,CLR,SKC,0.00,WeatherDisplay:10.37,2013-09-13 16:40:00,
2013-09-13 10:45:00,67.9,50.6,29.68,NE,37,0.0,0.0,54,0.00,CLR,SKC,0.00,WeatherDisplay:10.37,2013-09-13 16:45:00,
2013-09-13 10:51:00,68.2,51.9,29.68,NE,37,0.0,0.0,56,0.00,CLR,SKC,0.00,WeatherDisplay:10.37,2013-09-13 16:51:00,
2013-09-13 10:56:00,68.6,52.8,29.68,NE,37,0.0,0.0,57,0.00,CLR,SKC,0.00,WeatherDisplay:10.37,2013-09-13 16:56:00,
2013-09-13 11:01:00,69.3,51.4,29.68,NE,37,0.0,0.0,53,0.00,CLR,SKC,0.00,WeatherDisplay:10.37,2013-09-13 17:01:00,
2013-09-13 11:06:00,69.9,51.5,29.68,NE,37,1.1,0.0,52,0.00,CLR,SKC,0.00,WeatherDisplay:10.37,2013-09-13 17:06:00,
2013-09-13 11:11:00,70.5,52.0,29.67,SE,136,0.0,0.0,52,0.00,CLR,SKC,0.00,WeatherDisplay:10.37,2013-09-13 17:11:00,
2013-09-13 11:16:00,70.9,51.3,29.67,ESE,109,1.1,0.0,50,0.00,CLR,SKC,0.00,WeatherDisplay:10.37,2013-09-13 17:16:00,
2013-09-13 11:21:00,71.3,51.7,29.66,ESE,113,2.3,2.3,50,0.00,CLR,SKC,0.00,WeatherDisplay:10.37,2013-09-13 17:21:00,
2013-09-13 11:25:00,71.8,52.2,29.66,ESE,113,0.0,0.0,50,0.00,CLR,SKC,0.00,WeatherDisplay:10.37,2013-09-13 17:25:00,
2013-09-13 11:30:00,72.1,53.5,29.66,South,188,1.0,1.0,52,0.00,CLR,SKC,0.00,WeatherDisplay:10.37,2013-09-13 17:30:00,
2013-09-13 11:35:00,72.5,53.3,29.66,SW,214,2.3,2.3,51,0.00,CLR,SKC,0.00,WeatherDisplay:10.37,2013-09-13 17:35:00,
2013-09-13 11:40:00,72.7,52.4,29.66,South,184,1.1,0.0,49,0.00,CLR,SKC,0.00,WeatherDisplay:10.37,2013-09-13 17:40:00,
2013-09-13 11:46:00,73.4,53.1,29.65,South,182,2.3,2.3,49,0.00,CLR,SKC,0.00,WeatherDisplay:10.37,2013-09-13 17:46:00,
2013-09-13 11:51:00,74.0,53.1,29.65,West,261,1.1,1.1,48,0.00,CLR,SKC,0.00,WeatherDisplay:10.37,2013-09-13 17:51:00,
2013-09-13 11:56:00,74.3,54.5,29.64,WSW,257,0.0,0.0,50,0.00,CLR,SKC,0.00,WeatherDisplay:10.37,2013-09-13 17:56:00,
2013-09-13 12:01:00,74.7,54.8,29.64,SW,229,1.1,1.1,50,0.00,CLR,SKC,0.00,WeatherDisplay:10.37,2013-09-13 18:01:00,
2013-09-13 12:06:00,75.3,53.7,29.63,South,184,0.0,0.0,47,0.00,CLR,SKC,0.00,WeatherDisplay:10.37,2013-09-13 18:06:00,
2013-09-13 12:11:00,75.7,54.0,29.63,South,184,0.0,0.0,47,0.00,CLR,SKC,0.00,WeatherDisplay:10.37,2013-09-13 18:11:00,
2013-09-13 12:16:00,76.2,53.3,29.63,SE,131,2.3,2.3,45,0.00,CLR,SKC,0.00,WeatherDisplay:10.37,2013-09-13 18:16:00,
2013-09-13 12:21:00,76.6,53.7,29.63,NW,319,2.3,2.3,45,0.00,CLR,SKC,0.00,WeatherDisplay:10.37,2013-09-13 18:21:00,
2013-09-13 12:26:00,77.1,53.5,29.62,ENE,65,2.3,2.3,44,0.00,CLR,SKC,0.00,WeatherDisplay:10.37,2013-09-13 18:26:00,
2013-09-13 12:31:00,77.6,52.7,29.62,NE,51,2.3,2.3,42,0.00,CLR,SKC,0.00,WeatherDisplay:10.37,2013-09-13 18:31:00,
2013-09-13 12:36:00,77.9,53.0,29.62,WSW,248,2.3,2.3,42,0.00,CLR,SKC,0.00,WeatherDisplay:10.37,2013-09-13 18:36:00,
2013-09-13 12:42:00,78.4,52.7,29.62,North,355,2.3,2.3,41,0.00,CLR,SKC,0.00,WeatherDisplay:10.37,2013-09-13 18:42:00,
2013-09-13 12:47:00,78.7,53.7,29.61,SW,227,1.1,1.1,42,0.00,CLR,SKC,0.00,WeatherDisplay:10.37,2013-09-13 18:47:00,
2013-09-13 12:52:00,79.0,53.9,29.61,East,91,2.3,2.3,42,0.00,CLR,SKC,0.00,WeatherDisplay:10.37,2013-09-13 18:52:00,
2013-09-13 12:57:00,79.4,53.0,29.60,East,83,1.1,1.1,40,0.00,CLR,SKC,0.00,WeatherDisplay:10.37,2013-09-13 18:57:00,
2013-09-13 13:02:00,79.7,52.5,29.60,NNE,26,1.1,1.1,39,0.00,CLR,SKC,0.00,WeatherDisplay:10.37,2013-09-13 19:02:00,
2013-09-13 13:07:00,80.3,52.4,29.60,NNE,30,1.1,1.1,38,0.00,CLR,SKC,0.00,WeatherDisplay:10.37,2013-09-13 19:07:00,
2013-09-13 13:12:00,80.8,51.4,29.60,ESE,111,1.1,1.1,36,0.00,CLR,SKC,0.00,WeatherDisplay:10.37,2013-09-13 19:12:00,
2013-09-13 13:17:00,81.1,51.6,29.59,SE,144,1.1,1.1,36,0.00,CLR,SKC,0.00,WeatherDisplay:10.37,2013-09-13 19:17:00,
2013-09-13 13:22:00,81.3,51.0,29.59,NW,313,2.3,2.3,35,0.00,CLR,SKC,0.00,WeatherDisplay:10.37,2013-09-13 19:22:00,
2013-09-13 13:27:00,81.7,50.6,29.59,NNE,12,2.3,2.3,34,0.00,CLR,SKC,0.00,WeatherDisplay:10.37,2013-09-13 19:27:00,
2013-09-13 13:32:00,81.8,51.5,29.59,North,5,1.1,1.1,35,0.00,CLR,SKC,0.00,WeatherDisplay:10.37,2013-09-13 19:32:00,
2013-09-13 13:37:00,82.3,51.9,29.58,NE,53,1.1,1.1,35,0.00,CLR,SKC,0.00,WeatherDisplay:10.37,2013-09-13 19:37:00,
2013-09-13 13:42:00,82.7,52.3,29.58,West,259,2.3,2.3,35,0.00,CLR,SKC,0.00,WeatherDisplay:10.37,2013-09-13 19:42:00,
2013-09-13 13:47:00,83.2,54.2,29.58,North,9,1.1,0.0,37,0.00,CLR,SKC,0.00,WeatherDisplay:10.37,2013-09-13 19:47:00,
2013-09-13 13:52:00,83.9,52.5,29.58,North,5,1.1,1.1,34,0.00,CLR,SKC,0.00,WeatherDisplay:10.37,2013-09-13 19:52:00,
2013-09-13 13:58:00,83.8,50.8,29.57,North,350,1.1,1.1,32,0.00,CLR,SKC,0.00,WeatherDisplay:10.37,2013-09-13 19:58:00,
2013-09-13 14:03:00,84.1,51.9,29.57,South,171,3.5,3.5,33,0.00,CLR,SKC,0.00,WeatherDisplay:10.37,2013-09-13 20:03:00,
2013-09-13 14:08:00,84.0,51.8,29.57,South,172,0.0,0.0,33,0.00,CLR,SKC,0.00,WeatherDisplay:10.37,2013-09-13 20:08:00,
2013-09-13 14:13:00,84.6,51.5,29.57,NE,53,0.0,0.3,32,0.00,CLR,SKC,0.00,WeatherDisplay:10.37,2013-09-13 20:13:00,
2013-09-13 14:18:00,84.7,52.4,29.56,WNW,290,1.1,1.1,33,0.00,CLR,SKC,0.00,WeatherDisplay:10.37,2013-09-13 20:18:00,
2013-09-13 14:23:00,85.0,54.3,29.56,ENE,59,1.1,1.1,35,0.00,CLR,SKC,0.00,WeatherDisplay:10.37,2013-09-13 20:23:00,
2013-09-13 14:28:00,85.4,51.3,29.56,NE,39,2.3,2.3,31,0.00,CLR,SKC,0.00,WeatherDisplay:10.37,2013-09-13 20:28:00,
2013-09-13 14:33:00,85.6,52.4,29.56,NE,46,1.0,2.0,32,0.00,CLR,SKC,0.00,WeatherDisplay:10.37,2013-09-13 20:33:00,
2013-09-13 14:38:00,85.6,52.4,29.55,ESE,107,0.0,2.0,32,0.00,CLR,SKC,0.00,WeatherDisplay:10.37,2013-09-13 20:38:00,
2013-09-13 14:44:00,85.9,51.8,29.55,SW,221,2.3,2.3,31,0.00,CLR,SKC,0.00,WeatherDisplay:10.37,2013-09-13 20:44:00,
2013-09-13 14:49:00,86.0,51.8,29.55,ENE,65,3.5,3.5,31,0.00,CLR,SKC,0.00,WeatherDisplay:10.37,2013-09-13 20:49:00,
2013-09-13 14:54:00,85.9,50.0,29.55,NE,41,2.3,2.3,29,0.00,CLR,SKC,0.00,WeatherDisplay:10.37,2013-09-13 20:54:00,
2013-09-13 15:00:00,85.9,51.8,29.55,NE,44,1.1,1.1,31,0.00,CLR,SKC,0.00,WeatherDisplay:10.37,2013-09-13 21:00:00,
2013-09-13 15:05:00,86.0,51.0,29.55,North,5,1.1,0.0,30,0.00,CLR,SKC,0.00,WeatherDisplay:10.37,2013-09-13 21:05:00,
2013-09-13 15:10:00,86.4,51.3,29.54,East,80,1.1,1.1,30,0.00,CLR,SKC,0.00,WeatherDisplay:10.37,2013-09-13 21:10:00,
2013-09-13 15:15:00,86.5,51.4,29.54,South,173,2.3,2.3,30,0.00,CLR,SKC,0.00,WeatherDisplay:10.37,2013-09-13 21:15:00,
2013-09-13 15:20:00,86.4,51.3,29.54,East,81,1.1,1.1,30,0.00,CLR,SKC,0.00,WeatherDisplay:10.37,2013-09-13 21:20:00,
2013-09-13 15:25:00,86.7,50.6,29.54,South,173,2.3,2.3,29,0.00,CLR,SKC,0.00,WeatherDisplay:10.37,2013-09-13 21:25:00,
2013-09-13 15:31:00,87.0,51.8,29.53,South,179,0.0,0.0,30,0.00,CLR,SKC,0.00,WeatherDisplay:10.37,2013-09-13 21:31:00,
2013-09-13 15:36:00,87.1,50.0,29.53,NNE,32,3.5,3.5,28,0.00,CLR,SKC,0.00,WeatherDisplay:10.37,2013-09-13 21:36:00,
2013-09-13 15:41:00,87.0,50.0,29.53,North,355,1.1,1.1,28,0.00,CLR,SKC,0.00,WeatherDisplay:10.37,2013-09-13 21:41:00,
2013-09-13 15:46:00,87.1,51.9,29.53,NE,49,1.1,1.1,30,0.00,CLR,SKC,0.00,WeatherDisplay:10.37,2013-09-13 21:46:00,
2013-09-13 15:51:00,87.2,51.1,29.53,ENE,62,2.3,2.3,29,0.00,CLR,SKC,0.00,WeatherDisplay:10.37,2013-09-13 21:51:00,
2013-09-13 15:56:00,87.1,49.1,29.53,NE,46,3.5,3.5,27,0.00,CLR,SKC,0.00,WeatherDisplay:10.37,2013-09-13 21:56:00,
2013-09-13 16:01:00,86.7,49.7,29.53,NE,39,2.3,2.3,28,0.00,CLR,SKC,0.00,WeatherDisplay:10.37,2013-09-13 22:01:00,
2013-09-13 16:06:00,86.6,49.6,29.53,NE,51,3.0,3.0,28,0.00,CLR,SKC,0.00,WeatherDisplay:10.37,2013-09-13 22:06:00,
2013-09-13 16:10:00,86.7,50.6,29.52,ENE,70,2.3,2.3,29,0.00,CLR,SKC,0.00,WeatherDisplay:10.37,2013-09-13 22:10:00,
2013-09-13 16:15:00,86.7,50.6,29.52,ENE,70,1.1,1.1,29,0.00,CLR,SKC,0.00,WeatherDisplay:10.37,2013-09-13 22:15:00,
2013-09-13 16:20:00,86.5,49.5,29.52,ENE,69,1.1,1.1,28,0.00,CLR,SKC,0.00,WeatherDisplay:10.37,2013-09-13 22:20:00,
2013-09-13 16:25:00,86.6,49.6,29.52,ENE,69,1.1,1.1,28,0.00,CLR,SKC,0.00,WeatherDisplay:10.37,2013-09-13 22:25:00,
2013-09-13 16:30:00,86.5,49.5,29.52,ENE,65,2.0,2.0,28,0.00,CLR,SKC,0.00,WeatherDisplay:10.37,2013-09-13 22:30:00,
2013-09-13 16:35:00,86.5,49.5,29.52,ENE,63,1.1,1.1,28,0.00,CLR,SKC,0.00,WeatherDisplay:10.37,2013-09-13 22:35:00,
2013-09-13 16:40:00,86.6,48.6,29.52,ENE,63,0.0,0.0,27,0.00,CLR,SKC,0.00,WeatherDisplay:10.37,2013-09-13 22:40:00,
2013-09-13 16:45:00,86.7,50.6,29.52,NE,34,1.1,1.1,29,0.00,CLR,SKC,0.00,WeatherDisplay:10.37,2013-09-13 22:45:00,
2013-09-13 16:50:00,86.6,48.6,29.52,NE,55,2.3,2.3,27,0.00,CLR,SKC,0.00,WeatherDisplay:10.37,2013-09-13 22:50:00,
2013-09-13 16:55:00,86.3,48.4,29.52,NE,55,0.0,0.0,27,0.00,CLR,SKC,0.00,WeatherDisplay:10.37,2013-09-13 22:55:00,
2013-09-13 17:00:00,86.0,50.0,29.52,NE,55,2.3,2.3,29,0.00,CLR,SKC,0.00,WeatherDisplay:10.37,2013-09-13 23:00:00,
2013-09-13 17:05:00,85.5,48.7,29.52,NE,55,2.3,2.3,28,0.00,CLR,SKC,0.00,WeatherDisplay:10.37,2013-09-13 23:05:00,
2013-09-13 17:10:00,85.2,48.4,29.52,NE,55,2.3,2.3,28,0.00,CLR,SKC,0.00,WeatherDisplay:10.37,2013-09-13 23:10:00,
2013-09-13 17:15:00,85.0,49.2,29.52,NE,55,1.1,1.1,29,0.00,CLR,SKC,0.00,WeatherDisplay:10.37,2013-09-13 23:15:00,
2013-09-13 17:20:00,84.8,49.0,29.52,NE,55,2.3,2.3,29,0.00,CLR,SKC,0.00,WeatherDisplay:10.37,2013-09-13 23:20:00,
2013-09-13 17:26:00,84.7,47.0,29.52,NE,51,1.1,1.1,27,0.00,CLR,SKC,0.00,WeatherDisplay:10.37,2013-09-13 23:26:00,
2013-09-13 17:31:00,84.5,45.8,29.52,NE,34,3.5,3.5,26,0.00,CLR,SKC,0.00,WeatherDisplay:10.37,2013-09-13 23:31:00,
2013-09-13 17:36:00,84.2,46.6,29.52,NE,52,2.3,2.3,27,0.00,CLR,SKC,0.00,WeatherDisplay:10.37,2013-09-13 23:36:00,
2013-09-13 17:41:00,83.9,46.3,29.52,NE,52,1.1,0.0,27,0.00,CLR,SKC,0.00,WeatherDisplay:10.37,2013-09-13 23:41:00,
2013-09-13 17:46:00,83.6,48.9,29.52,NE,51,1.1,0.0,30,0.00,CLR,SKC,0.00,WeatherDisplay:10.37,2013-09-13 23:46:00,
2013-09-13 17:51:00,83.2,45.7,29.52,NE,51,1.1,1.1,27,0.00,CLR,SKC,0.00,WeatherDisplay:10.37,2013-09-13 23:51:00,
2013-09-13 17:56:00,82.7,55.2,29.52,NE,51,0.0,0.0,39,0.00,CLR,SKC,0.00,WeatherDisplay:10.37,2013-09-13 23:56:00,
2013-09-13 18:01:00,81.8,52.2,29.52,NE,51,1.1,1.1,36,0.00,CLR,SKC,0.00,WeatherDisplay:10.37,2013-09-14 00:01:00,
2013-09-13 18:06:00,80.9,55.0,29.51,NE,51,0.0,0.0,41,0.00,CLR,SKC,0.00,WeatherDisplay:10.37,2013-09-14 00:06:00,
2013-09-13 18:11:00,80.0,55.5,29.51,NE,51,0.0,0.0,43,0.00,CLR,SKC,0.00,WeatherDisplay:10.37,2013-09-14 00:11:00,
2013-09-13 18:16:00,79.2,54.8,29.51,NE,51,0.0,0.0,43,0.00,CLR,SKC,0.00,WeatherDisplay:10.37,2013-09-14 00:16:00,
2013-09-13 18:21:00,78.5,54.8,29.51,NE,51,0.0,0.0,44,0.00,CLR,SKC,0.00,WeatherDisplay:10.37,2013-09-14 00:21:00,
2013-09-13 18:26:00,77.6,50.7,29.52,NE,51,0.0,0.0,39,0.00,CLR,SKC,0.00,WeatherDisplay:10.37,2013-09-14 00:26:00,
2013-09-13 18:32:00,76.7,51.9,29.52,NE,51,0.0,0.0,42,0.00,CLR,SKC,0.00,WeatherDisplay:10.37,2013-09-14 00:32:00,
2013-09-13 18:37:00,75.8,51.1,29.52,NE,51,0.0,0.0,42,0.00,CLR,SKC,0.00,WeatherDisplay:10.37,2013-09-14 00:37:00,
2013-09-13 18:42:00,75.2,49.9,29.52,NE,51,0.0,0.0,41,0.00,CLR,SKC,0.00,WeatherDisplay:10.37,2013-09-14 00:42:00,
2013-09-13 18:47:00,74.7,51.3,29.52,NE,51,0.0,0.0,44,0.00,CLR,SKC,0.00,WeatherDisplay:10.37,2013-09-14 00:47:00,
2013-09-13 18:52:00,74.2,52.1,29.52,NE,51,0.0,0.0,46,0.00,CLR,SKC,0.00,WeatherDisplay:10.37,2013-09-14 00:52:00,
2013-09-13 18:57:00,73.8,52.3,29.52,NE,51,1.1,0.0,47,0.00,CLR,SKC,0.00,WeatherDisplay:10.37,2013-09-14 00:57:00,
2013-09-13 19:02:00,73.5,50.9,29.52,NE,51,0.0,0.0,45,0.00,CLR,SKC,0.00,WeatherDisplay:10.37,2013-09-14 01:02:00,
2013-09-13 19:07:00,73.2,52.9,29.52,NE,51,0.0,0.0,49,0.00,CLR,SKC,0.00,WeatherDisplay:10.37,2013-09-14 01:07:00,
2013-09-13 19:12:00,73.1,52.8,29.53,NE,51,0.0,0.0,49,0.00,CLR,SKC,0.00,WeatherDisplay:10.37,2013-09-14 01:12:00,
2013-09-13 19:18:00,72.8,51.4,29.53,NE,51,0.0,0.1,47,0.00,CLR,SKC,0.00,WeatherDisplay:10.37,2013-09-14 01:18:00,
2013-09-13 19:23:00,72.7,52.4,29.53,NE,51,0.0,0.0,49,0.00,CLR,SKC,0.00,WeatherDisplay:10.37,2013-09-14 01:23:00,
2013-09-13 19:28:00,72.1,51.9,29.53,NE,51,0.0,0.0,49,0.00,CLR,SKC,0.00,WeatherDisplay:10.37,2013-09-14 01:28:00,
2013-09-13 19:33:00,71.6,49.7,29.53,NE,51,0.0,0.0,46,0.00,CLR,SKC,0.00,WeatherDisplay:10.37,2013-09-14 01:33:00,
2013-09-13 19:38:00,71.4,50.1,29.53,NE,51,0.0,0.0,47,0.00,CLR,SKC,0.00,WeatherDisplay:10.37,2013-09-14 01:38:00,
2013-09-13 19:43:00,71.1,50.4,29.53,NE,51,0.0,0.0,48,0.00,CLR,SKC,0.00,WeatherDisplay:10.37,2013-09-14 01:43:00,
2013-09-13 19:48:00,71.2,51.1,29.53,NE,51,0.0,0.0,49,0.00,CLR,SKC,0.00,WeatherDisplay:10.37,2013-09-14 01:48:00,
2013-09-13 19:53:00,71.1,49.3,29.54,NE,51,0.0,0.0,46,0.00,CLR,SKC,0.00,WeatherDisplay:10.37,2013-09-14 01:53:00,
2013-09-13 19:58:00,71.0,49.2,29.54,NE,51,0.0,0.0,46,0.00,CLR,SKC,0.00,WeatherDisplay:10.37,2013-09-14 01:58:00,
2013-09-13 20:03:00,71.0,50.3,29.54,NE,51,0.0,0.0,48,0.00,CLR,SKC,0.00,WeatherDisplay:10.37,2013-09-14 02:03:00,
2013-09-13 20:08:00,70.8,50.1,29.54,NE,51,0.0,0.0,48,0.00,CLR,SKC,0.00,WeatherDisplay:10.37,2013-09-14 02:08:00,
2013-09-13 20:13:00,70.4,49.8,29.54,NE,51,0.0,0.0,48,0.00,CLR,SKC,0.00,WeatherDisplay:10.37,2013-09-14 02:13:00,
2013-09-13 20:18:00,70.0,50.5,29.54,NE,51,0.0,0.0,50,0.00,CLR,SKC,0.00,WeatherDisplay:10.37,2013-09-14 02:18:00,
2013-09-13 20:23:00,69.4,51.5,29.55,NE,51,0.0,1.0,53,0.00,CLR,SKC,0.00,WeatherDisplay:10.37,2013-09-14 02:23:00,
2013-09-13 20:28:00,68.6,49.7,29.56,NE,51,0.0,0.0,51,0.00,CLR,SKC,0.00,WeatherDisplay:10.37,2013-09-14 02:28:00,
2013-09-13 20:34:00,68.5,48.6,29.56,NE,51,0.0,0.0,49,0.00,CLR,SKC,0.00,WeatherDisplay:10.37,2013-09-14 02:34:00,
2013-09-13 20:39:00,68.4,49.0,29.57,ENE,67,2.3,2.3,50,0.00,CLR,SKC,0.00,WeatherDisplay:10.37,2013-09-14 02:39:00,
2013-09-13 20:44:00,68.8,48.3,29.57,South,183,1.1,1.1,48,0.00,CLR,SKC,0.00,WeatherDisplay:10.37,2013-09-14 02:44:00,
2013-09-13 20:49:00,69.3,51.9,29.57,South,183,0.0,0.0,54,0.00,CLR,SKC,0.00,WeatherDisplay:10.37,2013-09-14 02:49:00,
2013-09-13 20:54:00,69.2,48.1,29.57,South,183,1.1,1.1,47,0.00,CLR,SKC,0.00,WeatherDisplay:10.37,2013-09-14 02:54:00,
2013-09-13 20:59:00,69.6,47.9,29.58,South,183,2.3,2.3,46,0.00,CLR,SKC,0.00,WeatherDisplay:10.37,2013-09-14 02:59:00,
2013-09-13 21:04:00,70.1,50.0,29.59,South,183,0.0,0.0,49,0.00,CLR,SKC,0.00,WeatherDisplay:10.37,2013-09-14 03:04:00,
2013-09-13 21:09:00,70.1,48.4,29.60,South,176,2.0,2.0,46,0.00,CLR,SKC,0.00,WeatherDisplay:10.37,2013-09-14 03:09:00,
2013-09-13 21:14:00,70.4,50.9,29.60,SW,231,3.0,3.0,50,0.00,CLR,SKC,0.00,WeatherDisplay:10.37,2013-09-14 03:14:00,
2013-09-13 21:20:00,71.0,52.0,29.60,WSW,255,2.0,2.0,51,0.00,CLR,SKC,0.00,WeatherDisplay:10.37,2013-09-14 03:20:00,
2013-09-13 21:25:00,71.3,52.2,29.61,WSW,250,2.0,2.0,51,0.00,CLR,SKC,0.00,WeatherDisplay:10.37,2013-09-14 03:25:00,
2013-09-13 21:30:00,71.7,52.1,29.61,SSE,157,3.5,3.5,50,0.00,CLR,SKC,0.00,WeatherDisplay:10.37,2013-09-14 03:30:00,
2013-09-13 21:35:00,71.8,52.2,29.61,SW,227,3.0,3.0,50,0.00,CLR,SKC,0.00,WeatherDisplay:10.37,2013-09-14 03:35:00,
2013-09-13 21:40:00,71.7,51.5,29.61,SSW,212,5.8,5.8,49,0.00,CLR,SKC,0.00,WeatherDisplay:10.37,2013-09-14 03:40:00,
2013-09-13 21:45:00,71.7,52.1,29.62,SW,231,2.3,2.3,50,0.00,CLR,SKC,0.00,WeatherDisplay:10.37,2013-09-14 03:45:00,
2013-09-13 21:50:00,71.7,52.1,29.62,South,179,2.0,2.0,50,0.00,CLR,SKC,0.00,WeatherDisplay:10.37,2013-09-14 03:50:00,
2013-09-13 21:55:00,71.9,51.1,29.62,SW,222,3.5,3.5,48,0.00,CLR,SKC,0.00,WeatherDisplay:10.37,2013-09-14 03:55:00,
2013-09-13 22:00:00,72.2,50.8,29.62,SW,227,8.0,8.0,47,0.00,CLR,SKC,0.00,WeatherDisplay:10.37,2013-09-14 04:00:00,
2013-09-13 22:01:00,72.3,50.9,29.62,WSW,253,8.1,8.1,47,0.00,CLR,SKC,0.00,WeatherDisplay:10.37,2013-09-14 04:01:00,
2013-09-13 22:02:00,72.4,50.4,29.62,SW,222,8.1,8.1,46,0.00,CLR,SKC,0.00,WeatherDisplay:10.37,2013-09-14 04:02:00,
2013-09-13 22:03:00,72.5,50.5,29.62,SW,232,8.1,8.1,46,0.00,CLR,SKC,0.00,WeatherDisplay:10.37,2013-09-14 04:03:00,
2013-09-13 22:04:00,72.6,50.6,29.62,SW,230,6.9,6.9,46,0.00,CLR,SKC,0.00,WeatherDisplay:10.37,2013-09-14 04:04:00,
2013-09-13 22:08:00,72.8,50.2,29.62,WSW,247,11.5,11.5,45,0.00,CLR,SKC,0.00,WeatherDisplay:10.37,2013-09-14 04:08:00,
2013-09-13 22:13:00,73.1,49.3,29.62,South,191,9.2,9.2,43,0.00,CLR,SKC,0.00,WeatherDisplay:10.37,2013-09-14 04:13:00,
2013-09-13 22:18:00,73.1,49.3,29.62,SW,232,8.1,8.1,43,0.00,CLR,SKC,0.00,WeatherDisplay:10.37,2013-09-14 04:18:00,
2013-09-13 22:21:00,73.0,49.8,29.62,SSW,206,4.0,4.0,44,0.00,CLR,SKC,0.00,WeatherDisplay:10.37,2013-09-14 04:21:00,
2013-09-13 22:26:00,73.0,49.8,29.61,SSW,213,4.0,4.0,44,0.00,CLR,SKC,0.00,WeatherDisplay:10.37,2013-09-14 04:26:00,
2013-09-13 22:31:00,72.9,49.7,29.61,SW,229,3.5,3.5,44,0.00,CLR,SKC,0.00,WeatherDisplay:10.37,2013-09-14 04:31:00,
2013-09-13 22:36:00,72.8,49.0,29.61,SW,215,3.5,3.5,43,0.00,CLR,SKC,0.00,WeatherDisplay:10.37,2013-09-14 04:36:00,
2013-09-13 22:41:00,73.0,48.5,29.61,SSW,210,5.8,5.8,42,0.00,CLR,SKC,0.00,WeatherDisplay:10.37,2013-09-14 04:41:00,
2013-09-13 22:46:00,73.0,48.5,29.61,SW,221,1.1,1.1,42,0.00,CLR,SKC,0.00,WeatherDisplay:10.37,2013-09-14 04:46:00,
2013-09-13 22:51:00,72.9,49.1,29.62,SW,221,0.0,0.0,43,0.00,CLR,SKC,0.00,WeatherDisplay:10.37,2013-09-14 04:51:00,
2013-09-13 22:57:00,72.1,50.2,29.62,SW,221,0.0,0.0,46,0.00,CLR,SKC,0.00,WeatherDisplay:10.37,2013-09-14 04:57:00,
2013-09-13 23:02:00,71.2,50.5,29.62,SW,227,1.1,1.1,48,0.00,CLR,SKC,0.00,WeatherDisplay:10.37,2013-09-14 05:02:00,
2013-09-13 23:07:00,70.4,50.3,29.62,SW,227,1.1,1.1,49,0.00,CLR,SKC,0.00,WeatherDisplay:10.37,2013-09-14 05:07:00,
2013-09-13 23:12:00,69.5,51.1,29.62,SW,216,1.1,1.1,52,0.00,CLR,SKC,0.00,WeatherDisplay:10.37,2013-09-14 05:12:00,
2013-09-13 23:18:00,68.3,51.5,29.63,SW,221,2.3,2.3,55,0.00,CLR,SKC,0.00,WeatherDisplay:10.37,2013-09-14 05:18:00,
2013-09-13 23:23:00,67.7,51.9,29.63,SSW,202,2.3,2.3,57,0.00,CLR,SKC,0.00,WeatherDisplay:10.37,2013-09-14 05:23:00,
2013-09-13 23:28:00,67.2,51.9,29.63,SSW,213,1.1,1.1,58,0.00,CLR,SKC,0.00,WeatherDisplay:10.37,2013-09-14 05:28:00,
2013-09-13 23:33:00,66.9,52.1,29.63,SW,216,2.3,2.3,59,0.00,CLR,SKC,0.00,WeatherDisplay:10.37,2013-09-14 05:33:00,
2013-09-13 23:38:00,66.9,52.6,29.63,SW,217,2.3,2.3,60,0.00,CLR,SKC,0.00,WeatherDisplay:10.37,2013-09-14 05:38:00,
2013-09-13 23:43:00,66.9,53.0,29.63,SW,218,1.1,1.1,61,0.00,CLR,SKC,0.00,WeatherDisplay:10.37,2013-09-14 05:43:00,
2013-09-13 23:48:00,66.8,52.9,29.63,SW,236,3.5,3.5,61,0.00,CLR,SKC,0.00,WeatherDisplay:10.37,2013-09-14 05:48:00,
2013-09-13 23:53:00,66.7,52.8,29.63,SW,215,3.5,3.5,61,0.00,CLR,SKC,0.00,WeatherDisplay:10.37,2013-09-14 05:53:00,
2013-09-13 23:58:00,66.5,53.1,29.63,SSW,213,0.0,3.0,62,0.00,CLR,SKC,0.00,WeatherDisplay:10.37,2013-09-14 05:58:00,